Terminal Aerodrome Forecast
Issued by NWS

Home | Current Version | Previous Version | Text Only | Print | Product List | Glossary On
Versions: 1 2 3 4 5 6 7 8 9 10 11 12 13 14 15 16 17 18 19 20 21 22 23 24 25
000
FTUS46 KEKA 191339 AAA
TAFCEC
TAF AMD
KCEC 191339Z 1914/2012 16014KT P6SM SCT025 OVC040
     FM191700 17018G28KT 2SM -RA BR OVC025 WS020/20045KT
     FM191900 16024G38KT 2SM +RA SCT004 OVC015
     FM192300 19014G22KT 2SM -RA BR OVC007
     FM200200 18014KT 3SM -SHRA BR SCT005 OVC015
     FM200600 18010G20KT P6SM -SHRA VCTS BKN030CB=

USA.gov is the U.S. government's official web portal to all federal, state and local government web resources and services.